createdAt,value
2022-11-24T00:00:13.915Z,16.50
2022-11-24T00:03:20.865Z,16.50
2022-11-24T00:06:12.004Z,15.40
2022-11-24T00:08:59.028Z,19.30
2022-11-24T00:11:45.697Z,17.20
2022-11-24T00:14:32.868Z,14.60
2022-11-24T00:17:19.782Z,15.20
2022-11-24T00:20:06.695Z,15.60
2022-11-24T00:22:53.802Z,16.50
2022-11-24T00:25:40.640Z,18.30
2022-11-24T00:28:27.575Z,15.40
2022-11-24T00:31:24.674Z,16.50
2022-11-24T00:34:13.248Z,18.70
2022-11-24T00:36:59.939Z,13.50
2022-11-24T00:39:47.429Z,16.50
2022-11-24T00:42:34.004Z,15.10
2022-11-24T00:45:21.744Z,17.30
2022-11-24T00:48:08.669Z,16.00
2022-11-24T00:51:02.907Z,14.00
2022-11-24T00:53:49.801Z,15.10
2022-11-24T00:56:36.715Z,16.50
2022-11-24T00:59:23.396Z,16.80
2022-11-24T01:02:11.166Z,14.90
2022-11-24T01:04:58.296Z,17.10
2022-11-24T01:07:45.073Z,18.80
2022-11-24T01:10:32.005Z,14.20
2022-11-24T01:13:19.217Z,16.60
2022-11-24T01:16:06.496Z,17.10
2022-11-24T01:18:53.747Z,14.30
2022-11-24T01:21:40.717Z,17.20
2022-11-24T01:24:27.490Z,14.10
2022-11-24T01:27:14.101Z,13.80
2022-11-24T01:30:00.765Z,17.10
2022-11-24T01:32:47.380Z,21.50
2022-11-24T01:35:34.309Z,18.80
2022-11-24T01:38:21.395Z,16.90
2022-11-24T01:41:11.325Z,22.00
2022-11-24T01:43:58.283Z,17.40
2022-11-24T01:46:47.553Z,16.00
2022-11-24T01:49:39.820Z,17.40
2022-11-24T01:55:15.986Z,13.60
2022-11-24T01:58:05.501Z,14.30
2022-11-24T02:04:39.086Z,12.60
2022-11-24T02:07:26.521Z,15.50
2022-11-24T02:10:14.742Z,14.80
2022-11-24T02:13:01.867Z,13.40
2022-11-24T02:15:48.923Z,14.40
2022-11-24T02:18:37.020Z,15.70
2022-11-24T02:21:24.093Z,13.50
2022-11-24T02:24:25.083Z,15.70
2022-11-24T02:27:11.969Z,14.90
2022-11-24T02:29:59.114Z,15.70
2022-11-24T02:32:46.142Z,14.80
2022-11-24T02:35:32.615Z,17.20
2022-11-24T02:38:19.519Z,14.70
2022-11-24T02:41:07.921Z,12.70
2022-11-24T02:44:00.204Z,14.90
2022-11-24T02:49:34.066Z,15.60
2022-11-24T02:52:20.684Z,17.60
2022-11-24T02:55:07.845Z,16.80
2022-11-24T02:57:54.396Z,20.90
2022-11-24T03:00:41.494Z,19.90
2022-11-24T03:03:28.167Z,39.60
2022-11-24T03:06:15.515Z,25.60
2022-11-24T03:09:02.364Z,20.90
2022-11-24T03:11:49.146Z,19.50
2022-11-24T03:14:35.959Z,17.60
2022-11-24T03:17:23.029Z,19.20
2022-11-24T03:20:09.982Z,17.30
2022-11-24T03:22:56.939Z,18.80
2022-11-24T03:25:43.385Z,19.70
2022-11-24T03:28:30.416Z,17.30
2022-11-24T03:31:16.931Z,16.60
2022-11-24T03:34:03.973Z,15.60
2022-11-24T03:36:50.992Z,19.00
2022-11-24T03:39:37.787Z,16.10
2022-11-24T03:42:24.371Z,15.80
2022-11-24T03:45:38.208Z,14.00
2022-11-24T03:48:18.887Z,17.90
2022-11-24T03:51:06.459Z,21.40
2022-11-24T03:53:53.268Z,18.40
2022-11-24T03:56:39.965Z,19.00
2022-11-24T03:59:26.620Z,18.00
2022-11-24T04:02:13.575Z,18.20
2022-11-24T04:05:00.213Z,19.80
2022-11-24T04:07:47.446Z,18.20
2022-11-24T04:10:36.511Z,17.00
2022-11-24T04:13:24.707Z,16.90
2022-11-24T04:16:11.390Z,14.70
2022-11-24T04:18:58.200Z,14.70
2022-11-24T04:21:44.918Z,15.90
2022-11-24T04:24:32.004Z,17.70
2022-11-24T04:27:19.178Z,16.10
2022-11-24T04:30:07.638Z,15.80
2022-11-24T04:32:54.425Z,15.70
2022-11-24T04:35:41.580Z,15.40
2022-11-24T04:39:25.933Z,14.90
2022-11-24T04:41:34.837Z,15.30
2022-11-24T04:44:21.484Z,15.40
2022-11-24T04:47:08.443Z,18.10
2022-11-24T04:49:55.105Z,16.90
2022-11-24T04:52:41.675Z,18.10
2022-11-24T04:55:28.426Z,15.50
2022-11-24T04:58:14.977Z,18.80
2022-11-24T05:01:01.497Z,16.40
2022-11-24T05:03:48.353Z,48.40
2022-11-24T05:06:35.173Z,33.10
2022-11-24T05:09:21.906Z,17.50
2022-11-24T05:12:08.458Z,15.30
2022-11-24T05:14:55.055Z,21.50
2022-11-24T05:17:41.739Z,16.30
2022-11-24T05:20:28.886Z,18.70
2022-11-24T05:23:15.718Z,20.20
2022-11-24T05:26:02.238Z,19.80
2022-11-24T05:28:48.945Z,14.90
2022-11-24T05:31:35.509Z,16.30
2022-11-24T05:34:21.913Z,21.40
2022-11-24T05:37:08.732Z,15.40
2022-11-24T05:39:55.252Z,16.40
2022-11-24T05:42:46.643Z,18.70
2022-11-24T05:45:33.908Z,19.60
2022-11-24T05:48:20.869Z,22.10
2022-11-24T05:51:09.414Z,17.50
2022-11-24T05:53:56.876Z,16.00
2022-11-24T05:59:48.016Z,18.40
2022-11-24T06:02:34.634Z,21.30
2022-11-24T06:05:21.919Z,18.80
2022-11-24T06:08:08.766Z,19.10
2022-11-24T06:11:17.305Z,19.20
2022-11-24T06:14:08.309Z,16.60
2022-11-24T06:16:57.988Z,20.90
2022-11-24T06:19:47.849Z,21.00
2022-11-24T06:22:34.784Z,18.80
2022-11-24T06:25:21.164Z,17.90
2022-11-24T06:28:07.855Z,15.80
2022-11-24T06:30:54.409Z,15.80
2022-11-24T06:33:41.488Z,17.40
2022-11-24T06:36:28.383Z,21.20
2022-11-24T06:39:14.987Z,16.70
2022-11-24T06:42:01.658Z,15.70
2022-11-24T06:44:48.829Z,19.80
2022-11-24T06:47:35.764Z,21.50
2022-11-24T06:50:22.928Z,22.60
2022-11-24T06:53:09.799Z,32.00
2022-11-24T06:55:58.035Z,22.00
2022-11-24T06:58:46.048Z,22.70
2022-11-24T07:01:32.746Z,21.90
2022-11-24T07:04:19.583Z,20.40
2022-11-24T07:07:06.190Z,19.90
2022-11-24T07:09:52.840Z,22.20
2022-11-24T07:12:39.721Z,25.60
2022-11-24T07:15:28.252Z,19.80
2022-11-24T07:18:14.982Z,22.90
2022-11-24T07:21:03.981Z,20.60
2022-11-24T07:23:51.676Z,21.00
2022-11-24T07:26:38.699Z,20.90
2022-11-24T07:29:25.466Z,21.10
2022-11-24T07:32:12.161Z,25.70
2022-11-24T07:34:58.909Z,24.50
2022-11-24T07:37:45.525Z,21.30
2022-11-24T07:40:32.355Z,23.50
2022-11-24T07:43:20.429Z,21.60
2022-11-24T07:46:10.219Z,24.20
2022-11-24T07:48:57.396Z,25.30
2022-11-24T07:51:44.592Z,23.00
2022-11-24T07:54:31.304Z,26.50
2022-11-24T07:57:18.331Z,27.50
2022-11-24T08:00:05.736Z,24.80
2022-11-24T08:02:52.457Z,25.90
2022-11-24T08:05:54.479Z,21.10
2022-11-24T08:08:46.312Z,20.60
2022-11-24T08:11:33.129Z,22.00
2022-11-24T08:14:20.043Z,21.90
2022-11-24T08:17:06.547Z,26.40
2022-11-24T08:19:53.345Z,23.90
2022-11-24T08:22:39.859Z,25.80
2022-11-24T08:25:31.973Z,30.40
2022-11-24T08:28:18.431Z,19.90
2022-11-24T08:31:06.024Z,21.90
2022-11-24T08:33:54.741Z,23.00
2022-11-24T08:36:41.189Z,23.60
2022-11-24T08:39:27.640Z,30.20
2022-11-24T08:42:14.414Z,32.70
2022-11-24T08:45:13.058Z,36.60
2022-11-24T08:48:06.808Z,29.30
2022-11-24T08:50:53.519Z,18.90
2022-11-24T08:53:41.022Z,19.40
2022-11-24T08:56:28.942Z,17.80
2022-11-24T08:59:15.352Z,20.40
2022-11-24T09:02:02.015Z,21.90
2022-11-24T09:04:48.407Z,23.70
2022-11-24T09:07:35.008Z,28.50
2022-11-24T09:10:21.923Z,36.80
2022-11-24T09:13:08.287Z,30.90
2022-11-24T09:15:54.998Z,30.70
2022-11-24T09:18:42.630Z,34.70
2022-11-24T09:21:31.337Z,28.70
2022-11-24T09:24:18.108Z,37.10
2022-11-24T09:27:04.807Z,27.90
2022-11-24T09:29:52.233Z,33.00
2022-11-24T09:32:38.725Z,32.50
2022-11-24T09:35:25.201Z,27.80
2022-11-24T09:38:13.625Z,26.00
2022-11-24T09:41:15.609Z,29.10
2022-11-24T09:44:02.281Z,24.40
2022-11-24T09:46:59.808Z,28.50
2022-11-24T09:50:10.282Z,33.10
2022-11-24T09:53:05.920Z,31.10
2022-11-24T09:55:53.994Z,29.30
2022-11-24T09:58:48.273Z,31.40
2022-11-24T10:01:37.310Z,30.60
2022-11-24T10:04:31.934Z,33.60
2022-11-24T10:07:25.135Z,25.30
2022-11-24T10:10:24.189Z,28.50
2022-11-24T10:13:26.893Z,26.50
2022-11-24T10:16:33.853Z,26.60
2022-11-24T10:19:37.500Z,26.30
2022-11-24T10:22:43.062Z,23.20
2022-11-24T10:25:49.813Z,20.90
2022-11-24T10:28:36.160Z,20.90
2022-11-24T10:31:36.774Z,27.70
2022-11-24T10:34:34.563Z,25.40
2022-11-24T10:37:28.951Z,27.30
2022-11-24T10:40:40.497Z,22.50
2022-11-24T10:43:22.200Z,28.80
2022-11-24T10:46:14.999Z,32.80
2022-11-24T10:49:04.013Z,30.40
2022-11-24T10:52:12.654Z,29.70
2022-11-24T10:55:00.496Z,24.70
2022-11-24T10:57:47.203Z,24.40
2022-11-24T11:00:34.472Z,20.30
2022-11-24T11:03:22.565Z,28.30
2022-11-24T11:06:13.682Z,21.20
2022-11-24T11:09:06.827Z,26.20
2022-11-24T11:11:54.028Z,20.80
2022-11-24T11:14:40.876Z,20.90
2022-11-24T11:17:27.774Z,13.00
2022-11-24T11:20:18.840Z,21.20
2022-11-24T11:23:15.053Z,22.10
2022-11-24T11:26:19.124Z,23.70
2022-11-24T11:35:29.193Z,25.00
2022-11-24T11:38:15.812Z,23.10
2022-11-24T11:41:03.032Z,28.20
2022-11-24T11:43:53.455Z,24.20
2022-11-24T11:46:40.530Z,23.30
2022-11-24T11:49:27.398Z,18.50
2022-11-24T11:52:26.146Z,24.00
2022-11-24T11:55:22.135Z,23.70
2022-11-24T11:58:18.632Z,22.60
2022-11-24T12:01:20.616Z,22.50
2022-11-24T12:04:25.941Z,24.30
2022-11-24T12:07:18.847Z,23.70
2022-11-24T12:10:08.605Z,23.00
2022-11-24T12:13:30.347Z,24.50
2022-11-24T12:16:31.119Z,25.70
2022-11-24T12:19:17.807Z,26.10
2022-11-24T12:22:17.784Z,25.90
2022-11-24T12:25:16.694Z,29.20
2022-11-24T12:28:03.432Z,27.20
2022-11-24T12:30:59.038Z,24.90
2022-11-24T12:33:51.688Z,26.40
2022-11-24T12:36:53.972Z,20.50
2022-11-24T12:39:57.236Z,17.50
2022-11-24T12:42:50.479Z,18.90
2022-11-24T12:46:15.593Z,15.20
2022-11-24T12:49:06.473Z,17.70
2022-11-24T12:52:04.895Z,18.20
2022-11-24T12:54:51.408Z,22.00
2022-11-24T12:57:42.615Z,42.90
2022-11-24T13:00:40.568Z,43.30
2022-11-24T13:03:32.677Z,74.50
2022-11-24T13:06:19.419Z,82.80
2022-11-24T13:09:12.896Z,38.60
2022-11-24T13:12:13.586Z,26.60
2022-11-24T13:14:59.961Z,38.50
2022-11-24T13:18:02.840Z,23.30
2022-11-24T13:20:53.695Z,28.00
2022-11-24T13:23:40.102Z,21.80
2022-11-24T13:26:41.752Z,18.50
2022-11-24T13:29:28.895Z,18.10
2022-11-24T13:32:19.388Z,17.60
2022-11-24T13:35:13.352Z,16.90
2022-11-24T13:37:59.969Z,27.40
2022-11-24T13:41:12.861Z,37.00
2022-11-24T13:44:12.185Z,37.90
2022-11-24T13:47:06.519Z,19.00
2022-11-24T13:49:53.843Z,19.80
2022-11-24T13:52:40.449Z,22.50
2022-11-24T13:55:32.744Z,17.00
2022-11-24T13:58:19.604Z,21.50
2022-11-24T14:01:14.899Z,18.60
2022-11-24T14:04:34.395Z,23.40
2022-11-24T14:07:13.723Z,24.30
2022-11-24T14:10:01.431Z,24.50
2022-11-24T14:12:48.076Z,23.50
2022-11-24T14:15:36.481Z,21.30
2022-11-24T14:18:23.727Z,22.10
2022-11-24T14:21:24.181Z,22.70
2022-11-24T14:24:24.237Z,20.60
2022-11-24T14:27:15.857Z,22.60
2022-11-24T14:30:17.728Z,24.40
2022-11-24T14:33:04.312Z,21.50
2022-11-24T14:35:51.245Z,23.60
2022-11-24T14:38:38.201Z,25.90
2022-11-24T14:41:28.332Z,21.00
2022-11-24T14:44:21.485Z,22.10
2022-11-24T14:47:17.207Z,22.10
2022-11-24T14:50:15.220Z,28.20
2022-11-24T14:53:02.411Z,24.90
2022-11-24T14:56:06.381Z,24.10
2022-11-24T14:58:54.297Z,24.80
2022-11-24T15:01:41.275Z,24.00
2022-11-24T15:07:37.392Z,24.70
2022-11-24T15:10:33.755Z,26.40
2022-11-24T15:13:22.540Z,24.00
2022-11-24T15:16:16.091Z,28.60
2022-11-24T15:19:03.013Z,27.00
2022-11-24T15:21:50.209Z,22.30
2022-11-24T15:24:48.426Z,29.80
2022-11-24T15:27:35.342Z,27.00
2022-11-24T15:30:21.990Z,23.60
2022-11-24T15:33:13.768Z,25.50
2022-11-24T15:36:00.912Z,23.00
2022-11-24T15:38:47.708Z,22.40
2022-11-24T15:41:34.490Z,22.10
2022-11-24T15:44:21.113Z,21.50
2022-11-24T15:47:08.571Z,22.90
2022-11-24T15:49:55.940Z,23.10
2022-11-24T15:52:43.195Z,28.80
2022-11-24T15:55:30.090Z,31.50
2022-11-24T15:58:16.863Z,34.70
2022-11-24T16:01:03.622Z,30.40
2022-11-24T16:03:51.313Z,29.90
2022-11-24T16:06:37.839Z,30.00
2022-11-24T16:09:24.655Z,32.90
2022-11-24T16:12:11.498Z,35.80
2022-11-24T16:14:58.117Z,35.30
2022-11-24T16:17:45.168Z,33.50
2022-11-24T16:20:32.478Z,28.70
2022-11-24T16:23:19.502Z,28.50
2022-11-24T16:26:06.536Z,28.30
2022-11-24T16:28:53.322Z,27.10
2022-11-24T16:31:39.946Z,27.50
2022-11-24T16:34:26.711Z,43.80
2022-11-24T16:37:13.591Z,30.60
2022-11-24T16:40:02.811Z,28.40
2022-11-24T16:42:49.304Z,31.40
2022-11-24T16:45:38.452Z,26.40
2022-11-24T16:48:27.844Z,23.60
2022-11-24T16:51:15.345Z,26.40
2022-11-24T16:54:02.164Z,27.00
2022-11-24T16:56:48.951Z,29.30
2022-11-24T16:59:35.638Z,26.70
2022-11-24T17:02:22.582Z,26.10
2022-11-24T17:05:09.549Z,28.00
2022-11-24T17:07:56.668Z,25.30
2022-11-24T17:10:43.035Z,30.30
2022-11-24T17:13:31.980Z,28.30
2022-11-24T17:16:20.084Z,33.90
2022-11-24T17:19:06.686Z,29.70
2022-11-24T17:21:54.630Z,28.10
2022-11-24T17:24:41.722Z,27.40
2022-11-24T17:27:28.765Z,27.90
2022-11-24T17:30:17.212Z,23.10
2022-11-24T17:33:04.005Z,28.90
2022-11-24T17:35:50.905Z,27.20
2022-11-24T17:38:37.940Z,27.70
2022-11-24T17:41:24.561Z,27.30
2022-11-24T17:44:21.376Z,25.80
2022-11-24T17:47:08.177Z,35.30
2022-11-24T17:49:54.768Z,34.50
2022-11-24T17:52:41.624Z,38.20
2022-11-24T17:55:28.198Z,33.20
2022-11-24T17:58:14.722Z,32.90
2022-11-24T18:01:01.737Z,44.70
2022-11-24T18:03:53.223Z,36.80
2022-11-24T18:09:27.868Z,38.90
2022-11-24T18:12:14.675Z,32.80
2022-11-24T18:15:01.654Z,37.90
2022-11-24T18:17:48.491Z,30.80
2022-11-24T18:20:35.506Z,33.70
2022-11-24T18:23:22.185Z,38.80
2022-11-24T18:26:11.708Z,31.00
2022-11-24T18:28:58.622Z,29.60
2022-11-24T18:31:45.863Z,29.10
2022-11-24T18:34:32.370Z,23.40
2022-11-24T18:37:19.508Z,21.60
2022-11-24T18:40:06.366Z,20.30
2022-11-24T18:42:53.329Z,25.50
2022-11-24T18:45:39.893Z,24.40
2022-11-24T18:48:36.909Z,22.70
2022-11-24T18:51:23.655Z,21.00
2022-11-24T18:54:10.471Z,20.40
2022-11-24T18:57:02.963Z,24.10
2022-11-24T18:59:50.226Z,28.30
2022-11-24T19:02:37.000Z,38.80
2022-11-24T19:05:24.023Z,46.80
2022-11-24T19:08:10.559Z,47.70
2022-11-24T19:10:57.748Z,63.40
2022-11-24T19:13:44.542Z,63.00
2022-11-24T19:16:31.825Z,61.30
2022-11-24T19:19:18.213Z,39.40
2022-11-24T19:22:05.118Z,25.60
2022-11-24T19:24:51.953Z,24.10
2022-11-24T19:27:38.911Z,24.00
2022-11-24T19:30:25.810Z,23.20
2022-11-24T19:33:12.793Z,24.10
2022-11-24T19:36:10.810Z,21.00
2022-11-24T19:38:58.506Z,23.40
2022-11-24T19:41:45.334Z,29.10
2022-11-24T19:44:32.610Z,23.50
2022-11-24T19:47:19.548Z,27.00
2022-11-24T19:50:10.336Z,30.70
2022-11-24T19:52:57.259Z,28.50
2022-11-24T19:55:53.993Z,25.00
2022-11-24T19:58:40.753Z,35.00
2022-11-24T20:01:29.386Z,41.10
2022-11-24T20:04:16.592Z,47.90
2022-11-24T20:07:03.373Z,55.90
2022-11-24T20:09:50.440Z,52.70
2022-11-24T20:12:37.103Z,66.30
2022-11-24T20:15:23.892Z,56.90
2022-11-24T20:18:10.503Z,58.20
2022-11-24T20:21:23.625Z,47.90
2022-11-24T20:24:12.630Z,64.70
2022-11-24T20:27:00.167Z,65.60
2022-11-24T20:29:47.222Z,63.10
2022-11-24T20:32:33.981Z,56.40
2022-11-24T20:35:21.165Z,56.20
2022-11-24T20:38:08.118Z,47.70
2022-11-24T20:41:04.693Z,45.90
2022-11-24T20:43:58.014Z,45.10
2022-11-24T20:46:45.885Z,49.40
2022-11-24T20:49:32.632Z,44.10
2022-11-24T20:52:19.584Z,43.50
2022-11-24T20:55:07.224Z,39.70
2022-11-24T20:57:54.375Z,36.30
2022-11-24T21:00:41.157Z,35.70
2022-11-24T21:03:27.743Z,35.60
2022-11-24T21:06:14.621Z,33.30
2022-11-24T21:09:03.974Z,34.30
2022-11-24T21:11:51.190Z,33.40
2022-11-24T21:14:38.455Z,28.40
2022-11-24T21:17:25.631Z,28.00
2022-11-24T21:20:12.954Z,28.80
2022-11-24T21:22:59.911Z,30.20
2022-11-24T21:25:46.824Z,33.30
2022-11-24T21:28:34.215Z,31.60
2022-11-24T21:31:21.611Z,33.30
2022-11-24T21:34:08.628Z,34.60
2022-11-24T21:36:55.469Z,35.80
2022-11-24T21:39:44.626Z,32.00
2022-11-24T21:42:31.837Z,34.70
2022-11-24T21:45:18.545Z,31.90
2022-11-24T21:48:05.405Z,35.30
2022-11-24T21:50:51.947Z,46.50
2022-11-24T21:53:38.818Z,49.50
2022-11-24T21:56:25.565Z,45.20
2022-11-24T21:59:12.228Z,34.20
2022-11-24T22:01:58.995Z,35.20
2022-11-24T22:04:45.894Z,32.50
2022-11-24T22:07:32.639Z,32.40
2022-11-24T22:10:19.559Z,36.80
2022-11-24T22:13:06.431Z,31.10
2022-11-24T22:16:09.629Z,29.40
2022-11-24T22:18:56.160Z,63.50
2022-11-24T22:21:43.160Z,36.70
2022-11-24T22:24:29.707Z,37.60
2022-11-24T22:27:16.541Z,32.90
2022-11-24T22:30:05.963Z,32.90
2022-11-24T22:32:53.441Z,48.30
2022-11-24T22:35:39.972Z,40.50
2022-11-24T22:38:27.027Z,40.80
2022-11-24T22:41:15.047Z,47.00
2022-11-24T22:44:01.992Z,53.00
2022-11-24T22:46:48.852Z,50.30
2022-11-24T22:49:35.920Z,64.60
2022-11-24T22:52:22.486Z,49.00
2022-11-24T22:55:09.250Z,42.60
2022-11-24T22:57:57.165Z,51.80
2022-11-24T23:00:44.049Z,43.50
2022-11-24T23:03:30.808Z,43.60
2022-11-24T23:06:18.791Z,38.50
2022-11-24T23:09:06.008Z,41.80
2022-11-24T23:11:52.620Z,41.50
2022-11-24T23:14:39.518Z,36.60
2022-11-24T23:17:26.108Z,37.30
2022-11-24T23:20:13.020Z,37.70
2022-11-24T23:23:00.202Z,45.00
2022-11-24T23:25:47.337Z,38.10
2022-11-24T23:28:34.084Z,38.80
2022-11-24T23:31:21.654Z,43.50
2022-11-24T23:34:09.264Z,43.10
2022-11-24T23:36:55.829Z,45.10
2022-11-24T23:39:42.532Z,41.70
2022-11-24T23:42:29.262Z,46.60
2022-11-24T23:45:16.102Z,46.40
2022-11-24T23:48:02.932Z,44.90
2022-11-24T23:50:49.762Z,40.90
2022-11-24T23:53:36.939Z,47.40
2022-11-24T23:56:28.187Z,49.50
2022-11-24T23:59:15.100Z,47.10
